Time;durP1;ratioP1;P1;durP2;ratioP2;P2;SDS_P1;SDS_P2;PMS_P1;PMS_P2;Temp;Humidity;BMP_temperature;BMP_pressure;BME280_temperature;BME280_humidity;BME280_pressure;Samples;Min_cycle;Max_cycle;Signal;HPM_P1;HPM_P2
2021/07/12 00:01:59;;;;;;;31.10;26.75;;;;;;;;;;5040889;28;20563;-70
2021/07/12 00:04:25;;;;;;;34.72;27.08;;;;;;;;;;5042490;28;20178;-70
2021/07/12 00:06:50;;;;;;;32.92;26.88;;;;;;;;;;5036468;28;22359;-70
2021/07/12 00:09:16;;;;;;;30.65;27.35;;;;;;;;;;5043677;28;20256;-70
2021/07/12 00:11:41;;;;;;;33.83;26.85;;;;;;;;;;5047127;28;20207;-70
2021/07/12 00:14:07;;;;;;;33.90;26.25;;;;;;;;;;5033891;28;20189;-70
2021/07/12 00:16:32;;;;;;;33.25;27.58;;;;;;;;;;5049630;28;20259;-70
2021/07/12 00:18:58;;;;;;;34.17;28.90;;;;;;;;;;5034395;28;20181;-70
2021/07/12 00:21:23;;;;;;;34.33;29.10;;;;;;;;;;5048283;28;20228;-70
2021/07/12 00:23:51;;;;;;;33.72;28.27;;;;;;;;;;5040189;28;20185;-70
2021/07/12 00:26:17;;;;;;;35.05;29.65;;;;;;;;;;5047581;28;20752;-70
2021/07/12 00:28:43;;;;;;;37.70;29.77;;;;;;;;;;5032339;28;20198;-70
2021/07/12 00:31:08;;;;;;;38.08;30.98;;;;;;;;;;5043043;28;20555;-70
2021/07/12 00:33:34;;;;;;;36.67;29.83;;;;;;;;;;5036384;28;20200;-70
2021/07/12 00:36:00;;;;;;;40.88;32.72;;;;;;;;;;5044302;28;20205;-70
2021/07/12 00:38:25;;;;;;;37.78;31.23;;;;;;;;;;5031878;28;20185;-70
2021/07/12 00:40:51;;;;;;;41.85;32.70;;;;;;;;;;5044689;28;20627;-70
2021/07/12 00:43:16;;;;;;;40.30;32.88;;;;;;;;;;5044041;28;20545;-70
2021/07/12 00:45:42;;;;;;;41.70;31.05;;;;;;;;;;5034566;28;20189;-70
2021/07/12 00:48:07;;;;;;;38.50;31.73;;;;;;;;;;5039423;28;20182;-70
2021/07/12 00:50:36;;;;;;;41.53;31.35;;;;;;;;;;5014019;28;20281;-70
2021/07/12 00:53:04;;;;;;;44.20;33.58;;;;;;;;;;5025308;28;20212;-70
2021/07/12 00:55:40;;;;;;;37.65;32.33;;;;;;;;;;5014788;28;20549;-70
2021/07/12 00:58:11;;;;;;;41.72;32.67;;;;;;;;;;5020877;28;20200;-70
2021/07/12 01:00:38;;;;;;;38.92;32.33;;;;;;;;;;5009578;28;20224;-70
2021/07/12 01:03:04;;;;;;;39.75;32.75;;;;;;;;;;5007537;28;20235;-69
2021/07/12 01:05:31;;;;;;;39.97;32.88;;;;;;;;;;5011953;28;20646;-69
2021/07/12 01:07:58;;;;;;;41.95;32.78;;;;;;;;;;5027898;28;20174;-69
2021/07/12 01:10:24;;;;;;;42.75;35.40;;;;;;;;;;5015543;28;20197;-70
2021/07/12 01:13:07;;;;;;;43.72;35.63;;;;;;;;;;5024435;28;20190;-70
2021/07/12 01:15:49;;;;;;;42.55;34.20;;;;;;;;;;5012596;28;20655;-71
2021/07/12 01:18:44;;;;;;;42.42;33.20;;;;;;;;;;5024112;28;20527;-71
2021/07/12 01:21:29;;;;;;;42.70;33.83;;;;;;;;;;5005684;28;20232;-69
2021/07/12 01:24:43;;;;;;;39.72;32.80;;;;;;;;;;5019215;28;20192;-69
2021/07/12 01:27:43;;;;;;;41.72;32.45;;;;;;;;;;5005087;28;20599;-69
2021/07/12 01:30:30;;;;;;;40.28;31.90;;;;;;;;;;5021050;28;20216;-69
2021/07/12 01:33:03;;;;;;;38.95;32.67;;;;;;;;;;5012717;28;20272;-69
2021/07/12 01:35:42;;;;;;;40.15;30.95;;;;;;;;;;5019885;28;20209;-70
2021/07/12 01:38:32;;;;;;;36.53;31.10;;;;;;;;;;5005295;28;20204;-69
2021/07/12 01:41:04;;;;;;;39.88;31.92;;;;;;;;;;5007043;28;20185;-69
2021/07/12 01:43:41;;;;;;;41.40;33.10;;;;;;;;;;5014958;28;20194;-69
2021/07/12 01:46:10;;;;;;;41.97;34.85;;;;;;;;;;5024721;28;20182;-69
2021/07/12 01:49:04;;;;;;;39.90;32.33;;;;;;;;;;5019404;28;20314;-68
2021/07/12 01:51:36;;;;;;;40.00;33.67;;;;;;;;;;5019458;28;20179;-69
2021/07/12 01:54:16;;;;;;;38.95;32.53;;;;;;;;;;5013463;28;20614;-70
2021/07/12 01:56:55;;;;;;;39.38;33.30;;;;;;;;;;5026035;28;20198;-69
2021/07/12 01:59:43;;;;;;;43.70;34.70;;;;;;;;;;5012637;28;20186;-69
2021/07/12 02:02:09;;;;;;;43.10;33.65;;;;;;;;;;5020243;28;20241;-69
2021/07/12 02:04:35;;;;;;;41.05;33.20;;;;;;;;;;5014537;28;20218;-69
2021/07/12 02:07:01;;;;;;;41.97;34.58;;;;;;;;;;5022724;28;20191;-69
2021/07/12 02:09:28;;;;;;;42.33;33.63;;;;;;;;;;5011785;28;20178;-69
2021/07/12 02:11:57;;;;;;;43.20;33.92;;;;;;;;;;5024571;28;20182;-69
2021/07/12 02:14:23;;;;;;;42.83;34.22;;;;;;;;;;5010782;28;20194;-70
2021/07/12 02:16:52;;;;;;;44.35;33.58;;;;;;;;;;5020467;28;20232;-69
2021/07/12 02:19:19;;;;;;;42.78;33.40;;;;;;;;;;5011767;28;20193;-69
2021/07/12 02:21:46;;;;;;;40.35;32.28;;;;;;;;;;5025717;28;20604;-69
2021/07/12 02:24:14;;;;;;;46.40;36.20;;;;;;;;;;5015153;28;20186;-69
2021/07/12 02:26:41;;;;;;;45.83;34.75;;;;;;;;;;5024206;28;20266;-69
2021/07/12 02:29:08;;;;;;;41.65;34.28;;;;;;;;;;5012208;28;20220;-69
2021/07/12 02:31:35;;;;;;;42.20;34.40;;;;;;;;;;5014781;28;20331;-69
2021/07/12 02:34:02;;;;;;;46.50;37.85;;;;;;;;;;5022912;28;20278;-69
2021/07/12 02:36:28;;;;;;;41.50;33.67;;;;;;;;;;5006606;28;20208;-69
2021/07/12 02:38:55;;;;;;;46.00;35.67;;;;;;;;;;5020804;28;20190;-69
2021/07/12 02:41:22;;;;;;;48.90;35.97;;;;;;;;;;5011660;28;20186;-69
2021/07/12 02:43:48;;;;;;;46.55;36.35;;;;;;;;;;5005587;28;20201;-69
2021/07/12 02:46:14;;;;;;;43.08;34.38;;;;;;;;;;5008364;28;20182;-69
2021/07/12 02:48:40;;;;;;;48.22;35.53;;;;;;;;;;5024074;28;20226;-69
2021/07/12 02:51:13;;;;;;;41.78;34.97;;;;;;;;;;5006663;28;20299;-69
2021/07/12 02:53:47;;;;;;;43.47;36.10;;;;;;;;;;5023749;28;20304;-69
2021/07/12 02:56:12;;;;;;;43.45;35.15;;;;;;;;;;5008744;28;20704;-69
2021/07/12 02:58:38;;;;;;;39.53;33.47;;;;;;;;;;5021149;28;20193;-69
2021/07/12 03:01:04;;;;;;;44.95;34.03;;;;;;;;;;5015348;28;21033;-69
2021/07/12 03:03:29;;;;;;;42.55;34.65;;;;;;;;;;5024485;28;20174;-69
2021/07/12 03:06:00;;;;;;;44.40;35.38;;;;;;;;;;5013518;28;20662;-69
2021/07/12 03:08:36;;;;;;;44.88;35.38;;;;;;;;;;5022998;28;20560;-69
2021/07/12 03:11:05;;;;;;;43.13;34.70;;;;;;;;;;5021544;28;20194;-69
2021/07/12 03:13:38;;;;;;;40.45;32.75;;;;;;;;;;5018309;28;20193;-69
2021/07/12 03:16:05;;;;;;;44.15;34.22;;;;;;;;;;5017061;28;20214;-69
2021/07/12 03:18:38;;;;;;;44.92;35.05;;;;;;;;;;5012005;28;20190;-69
2021/07/12 03:21:05;;;;;;;43.17;33.65;;;;;;;;;;5023056;28;20213;-69
2021/07/12 03:23:37;;;;;;;46.83;35.78;;;;;;;;;;5016266;28;20253;-69
2021/07/12 03:26:05;;;;;;;44.63;35.53;;;;;;;;;;5025800;28;20272;-69
2021/07/12 03:28:32;;;;;;;46.70;36.33;;;;;;;;;;5018090;28;20269;-69
2021/07/12 03:30:58;;;;;;;41.95;34.60;;;;;;;;;;5026194;28;20216;-69
2021/07/12 03:33:25;;;;;;;45.72;35.97;;;;;;;;;;5016424;28;20198;-69
2021/07/12 03:35:53;;;;;;;45.67;36.03;;;;;;;;;;5022374;28;20231;-69
2021/07/12 03:38:20;;;;;;;44.10;35.45;;;;;;;;;;5011227;28;20226;-69
2021/07/12 03:40:47;;;;;;;43.17;35.35;;;;;;;;;;5021864;28;20186;-69
2021/07/12 03:43:14;;;;;;;46.13;35.80;;;;;;;;;;5017842;28;20190;-69
2021/07/12 03:45:40;;;;;;;44.72;35.28;;;;;;;;;;5024627;28;20197;-69
2021/07/12 03:48:07;;;;;;;40.20;34.80;;;;;;;;;;5020046;28;20269;-69
2021/07/12 03:50:33;;;;;;;46.38;37.22;;;;;;;;;;5024677;28;20191;-69
2021/07/12 03:53:03;;;;;;;42.75;35.20;;;;;;;;;;5030564;28;20244;-69
2021/07/12 03:55:30;;;;;;;45.15;35.55;;;;;;;;;;5000127;28;20191;-69
2021/07/12 03:57:58;;;;;;;49.83;37.58;;;;;;;;;;5026030;28;20325;-69
2021/07/12 04:00:25;;;;;;;47.25;37.00;;;;;;;;;;5015805;28;20830;-69
2021/07/12 04:02:51;;;;;;;42.47;34.75;;;;;;;;;;5025414;28;20173;-69
2021/07/12 04:05:19;;;;;;;41.83;34.90;;;;;;;;;;5017525;28;20251;-70
2021/07/12 04:07:45;;;;;;;44.70;36.38;;;;;;;;;;5011075;28;20190;-69
2021/07/12 04:10:12;;;;;;;50.60;39.03;;;;;;;;;;5016826;28;20179;-70
2021/07/12 04:12:40;;;;;;;47.70;37.95;;;;;;;;;;5029291;28;20778;-70
2021/07/12 04:15:06;;;;;;;47.72;36.42;;;;;;;;;;5016897;28;20282;-70
2021/07/12 04:17:31;;;;;;;53.60;38.42;;;;;;;;;;5027480;28;20272;-71
2021/07/12 04:19:57;;;;;;;44.00;36.60;;;;;;;;;;5016779;28;20190;-70
2021/07/12 04:22:24;;;;;;;49.75;37.65;;;;;;;;;;5024652;28;20195;-69
2021/07/12 04:24:49;;;;;;;49.33;39.97;;;;;;;;;;5015927;28;20189;-69
2021/07/12 04:27:15;;;;;;;47.67;40.03;;;;;;;;;;5014195;28;20669;-70
2021/07/12 04:29:40;;;;;;;45.38;36.67;;;;;;;;;;5011170;28;20186;-69
2021/07/12 04:32:06;;;;;;;46.38;36.67;;;;;;;;;;5012722;28;20245;-71
2021/07/12 04:34:31;;;;;;;49.58;38.22;;;;;;;;;;5025113;28;20197;-70
2021/07/12 04:36:56;;;;;;;52.50;38.20;;;;;;;;;;5014319;28;20680;-69
2021/07/12 04:39:22;;;;;;;47.67;36.10;;;;;;;;;;5024722;28;20190;-70
2021/07/12 04:41:48;;;;;;;46.97;37.88;;;;;;;;;;5011795;28;20190;-69
2021/07/12 04:44:13;;;;;;;45.13;37.35;;;;;;;;;;5025926;28;20236;-69
2021/07/12 04:46:38;;;;;;;44.75;36.42;;;;;;;;;;5016318;28;20634;-69
2021/07/12 04:49:04;;;;;;;47.25;38.13;;;;;;;;;;5026200;28;20229;-69
2021/07/12 04:51:31;;;;;;;47.17;38.35;;;;;;;;;;5011575;28;20209;-70
2021/07/12 04:53:56;;;;;;;47.78;37.38;;;;;;;;;;5023517;28;20711;-69
2021/07/12 04:56:22;;;;;;;44.80;36.15;;;;;;;;;;5014640;28;20214;-70
2021/07/12 04:58:48;;;;;;;44.97;36.78;;;;;;;;;;5024365;28;20536;-70
2021/07/12 05:01:15;;;;;;;44.70;36.28;;;;;;;;;;5021324;28;20573;-70
2021/07/12 05:03:41;;;;;;;43.65;35.08;;;;;;;;;;5017054;28;20193;-70
2021/07/12 05:06:06;;;;;;;45.20;35.63;;;;;;;;;;5027191;28;20680;-70
2021/07/12 05:08:32;;;;;;;42.58;35.38;;;;;;;;;;5014792;28;20268;-70
2021/07/12 05:10:58;;;;;;;42.42;35.35;;;;;;;;;;5022246;28;20305;-70
2021/07/12 05:13:23;;;;;;;40.72;33.88;;;;;;;;;;5015635;28;20246;-70
2021/07/12 05:15:49;;;;;;;45.67;34.65;;;;;;;;;;5027094;28;20268;-70
2021/07/12 05:18:15;;;;;;;44.15;35.70;;;;;;;;;;5013645;28;20191;-70
2021/07/12 05:20:40;;;;;;;42.17;35.05;;;;;;;;;;5021874;28;20190;-70
2021/07/12 05:23:06;;;;;;;44.50;36.47;;;;;;;;;;5014493;28;20201;-70
2021/07/12 05:25:31;;;;;;;42.90;35.17;;;;;;;;;;5024544;28;20283;-70
2021/07/12 05:27:57;;;;;;;42.08;36.10;;;;;;;;;;5015876;28;20182;-70
2021/07/12 05:30:22;;;;;;;40.90;35.40;;;;;;;;;;5006368;28;20198;-70
2021/07/12 05:32:47;;;;;;;40.65;33.65;;;;;;;;;;5025194;28;20209;-70
2021/07/12 05:35:13;;;;;;;42.15;35.08;;;;;;;;;;5014475;28;20205;-70
2021/07/12 05:37:39;;;;;;;42.75;35.63;;;;;;;;;;5022826;28;20292;-70
2021/07/12 05:40:05;;;;;;;43.25;33.60;;;;;;;;;;5008086;28;20201;-70
2021/07/12 05:42:31;;;;;;;42.40;34.35;;;;;;;;;;5024807;28;20680;-70
2021/07/12 05:44:57;;;;;;;43.92;34.58;;;;;;;;;;5012348;28;20283;-70
2021/07/12 05:47:22;;;;;;;41.30;34.60;;;;;;;;;;5024407;28;20328;-70
2021/07/12 05:49:47;;;;;;;45.40;34.85;;;;;;;;;;5018332;28;20586;-70
2021/07/12 05:52:13;;;;;;;45.72;35.80;;;;;;;;;;5024654;28;20654;-70
2021/07/12 05:54:38;;;;;;;40.03;33.47;;;;;;;;;;5019327;28;20282;-70
2021/07/12 05:57:04;;;;;;;38.95;33.00;;;;;;;;;;5026723;28;20750;-70
2021/07/12 05:59:29;;;;;;;40.72;34.28;;;;;;;;;;5021845;28;20328;-70
2021/07/12 06:01:54;;;;;;;41.67;35.28;;;;;;;;;;5019274;28;20202;-71
2021/07/12 06:04:20;;;;;;;40.78;33.72;;;;;;;;;;5026729;28;20264;-68
2021/07/12 06:06:45;;;;;;;38.70;34.33;;;;;;;;;;5015231;28;20274;-68
2021/07/12 06:09:11;;;;;;;43.17;34.85;;;;;;;;;;5027586;28;20185;-69
2021/07/12 06:11:36;;;;;;;39.15;33.67;;;;;;;;;;5018206;28;20190;-69
2021/07/12 06:14:02;;;;;;;39.70;34.42;;;;;;;;;;5026461;28;20316;-69
2021/07/12 06:16:27;;;;;;;39.53;33.38;;;;;;;;;;5019119;28;20206;-69
2021/07/12 06:18:53;;;;;;;38.90;33.67;;;;;;;;;;5023206;28;20182;-69
2021/07/12 06:21:18;;;;;;;36.50;31.65;;;;;;;;;;5017236;28;20630;-69
2021/07/12 06:23:43;;;;;;;35.63;31.08;;;;;;;;;;5025881;28;20618;-69
2021/07/12 06:26:08;;;;;;;34.53;30.25;;;;;;;;;;5016256;28;20705;-70
2021/07/12 06:28:34;;;;;;;35.83;29.58;;;;;;;;;;5026735;28;20726;-70
2021/07/12 06:30:59;;;;;;;36.85;31.10;;;;;;;;;;5025267;28;20273;-70
2021/07/12 06:33:29;;;;;;;34.28;30.17;;;;;;;;;;5016814;28;20586;-70
2021/07/12 06:35:54;;;;;;;34.47;28.20;;;;;;;;;;5025317;28;20186;-70
2021/07/12 06:38:20;;;;;;;31.67;27.48;;;;;;;;;;5015463;28;20197;-70
2021/07/12 06:40:45;;;;;;;34.95;28.17;;;;;;;;;;5024006;28;20185;-70
2021/07/12 06:43:10;;;;;;;29.15;26.02;;;;;;;;;;5015413;28;20284;-70
2021/07/12 06:45:36;;;;;;;33.10;28.80;;;;;;;;;;5023822;28;20633;-70
2021/07/12 06:48:02;;;;;;;32.65;27.70;;;;;;;;;;5017864;28;20293;-70
2021/07/12 06:50:27;;;;;;;32.45;28.50;;;;;;;;;;5024136;28;20182;-70
2021/07/12 06:52:52;;;;;;;35.35;28.45;;;;;;;;;;5014471;28;20206;-70
2021/07/12 06:55:18;;;;;;;32.17;27.40;;;;;;;;;;5018249;28;20194;-70
2021/07/12 06:57:43;;;;;;;31.55;27.25;;;;;;;;;;5015967;28;20239;-70
2021/07/12 07:00:11;;;;;;;30.63;27.33;;;;;;;;;;5021597;28;20221;-70
2021/07/12 07:02:36;;;;;;;29.48;25.77;;;;;;;;;;5014396;28;20270;-70
2021/07/12 07:05:04;;;;;;;32.92;28.00;;;;;;;;;;5012230;28;20277;-70
2021/07/12 07:07:29;;;;;;;31.60;27.60;;;;;;;;;;5016211;28;20200;-70
2021/07/12 07:09:54;;;;;;;33.78;28.90;;;;;;;;;;5015023;28;20272;-70
2021/07/12 07:12:19;;;;;;;31.95;28.10;;;;;;;;;;5024898;28;20174;-70
2021/07/12 07:14:45;;;;;;;32.85;28.27;;;;;;;;;;5016052;28;20197;-70
2021/07/12 07:17:10;;;;;;;32.20;28.80;;;;;;;;;;5015886;28;20206;-70
2021/07/12 07:19:35;;;;;;;32.78;28.27;;;;;;;;;;5013928;28;20197;-70
2021/07/12 07:22:01;;;;;;;32.10;27.33;;;;;;;;;;5024104;28;20261;-70
2021/07/12 07:24:26;;;;;;;32.03;27.77;;;;;;;;;;5011906;28;20248;-70
2021/07/12 07:26:51;;;;;;;29.17;26.02;;;;;;;;;;5024279;28;20190;-70
2021/07/12 07:29:17;;;;;;;33.38;27.35;;;;;;;;;;5009130;28;20265;-70
2021/07/12 07:31:43;;;;;;;31.85;27.92;;;;;;;;;;5019807;28;20191;-71
2021/07/12 07:34:08;;;;;;;29.38;26.17;;;;;;;;;;5023591;28;20197;-70
2021/07/12 07:36:34;;;;;;;28.67;25.65;;;;;;;;;;5011401;28;20202;-70
2021/07/12 07:39:00;;;;;;;33.17;27.70;;;;;;;;;;5024393;28;20178;-70
2021/07/12 07:41:25;;;;;;;29.88;24.83;;;;;;;;;;5009776;28;20549;-70
2021/07/12 07:43:51;;;;;;;26.05;21.88;;;;;;;;;;5024487;28;20178;-70
2021/07/12 07:46:16;;;;;;;25.88;22.55;;;;;;;;;;5008474;28;20892;-70
2021/07/12 07:48:42;;;;;;;25.77;22.02;;;;;;;;;;5025480;28;20649;-70
2021/07/12 07:51:07;;;;;;;25.00;22.05;;;;;;;;;;5013435;28;20183;-70
2021/07/12 07:53:32;;;;;;;21.38;19.08;;;;;;;;;;5020337;28;20183;-70
2021/07/12 07:55:58;;;;;;;23.20;19.85;;;;;;;;;;5011071;28;20275;-70
2021/07/12 07:58:23;;;;;;;23.38;20.98;;;;;;;;;;5024206;28;20755;-70
2021/07/12 08:00:48;;;;;;;22.83;20.30;;;;;;;;;;5013547;28;20634;-70
2021/07/12 08:03:14;;;;;;;22.10;19.55;;;;;;;;;;5023073;28;20616;-70
2021/07/12 08:05:39;;;;;;;21.55;19.25;;;;;;;;;;5024014;28;20186;-70
2021/07/12 08:08:05;;;;;;;20.63;18.63;;;;;;;;;;5014873;28;20273;-70
2021/07/12 08:10:30;;;;;;;20.60;18.25;;;;;;;;;;5022733;28;20217;-70
2021/07/12 08:12:56;;;;;;;20.65;17.38;;;;;;;;;;5017680;28;20277;-70
2021/07/12 08:15:21;;;;;;;19.65;17.55;;;;;;;;;;5026508;28;20232;-70
2021/07/12 08:17:49;;;;;;;20.00;17.88;;;;;;;;;;5009624;28;20206;-70
2021/07/12 08:20:16;;;;;;;17.90;15.70;;;;;;;;;;5023346;28;20194;-70
2021/07/12 08:22:42;;;;;;;22.35;16.77;;;;;;;;;;5017443;28;20730;-70
2021/07/12 08:25:09;;;;;;;19.25;17.35;;;;;;;;;;5021264;28;20194;-70
2021/07/12 08:27:35;;;;;;;20.05;17.95;;;;;;;;;;5013812;28;20626;-70
2021/07/12 08:30:01;;;;;;;19.08;16.85;;;;;;;;;;5022125;28;20183;-69
2021/07/12 08:32:26;;;;;;;17.65;15.85;;;;;;;;;;5015461;28;20189;-70
2021/07/12 08:34:52;;;;;;;15.65;14.05;;;;;;;;;;5022125;28;20245;-70
2021/07/12 08:37:18;;;;;;;17.40;12.63;;;;;;;;;;5023358;28;20281;-69
2021/07/12 08:39:43;;;;;;;12.70;11.40;;;;;;;;;;5016954;28;20240;-70
2021/07/12 08:42:11;;;;;;;11.95;10.05;;;;;;;;;;5025362;28;20556;-75
2021/07/12 08:44:36;;;;;;;14.77;12.70;;;;;;;;;;5015402;28;20212;-70
2021/07/12 08:47:05;;;;;;;15.63;12.68;;;;;;;;;;5027156;28;20622;-70
2021/07/12 08:49:30;;;;;;;20.00;17.90;;;;;;;;;;5015118;28;20254;-69
2021/07/12 08:51:56;;;;;;;18.67;16.67;;;;;;;;;;5011120;28;20613;-70
2021/07/12 08:54:21;;;;;;;10.95;9.85;;;;;;;;;;5013388;28;20206;-70
2021/07/12 08:56:46;;;;;;;9.57;8.57;;;;;;;;;;5028849;28;20237;-71
2021/07/12 08:59:32;;;;;;;9.05;8.13;;;;;;;;;;5019311;28;20206;-70
2021/07/12 09:02:04;;;;;;;9.57;8.57;;;;;;;;;;5027635;28;20530;-70
2021/07/12 09:04:29;;;;;;;11.43;10.13;;;;;;;;;;5019289;28;20259;-69
2021/07/12 09:06:59;;;;;;;13.43;12.02;;;;;;;;;;5027942;28;20178;-69
2021/07/12 09:09:25;;;;;;;12.10;10.80;;;;;;;;;;5017720;28;20193;-69
2021/07/12 09:11:51;;;;;;;11.52;10.30;;;;;;;;;;5035499;28;20298;-69
2021/07/12 09:14:17;;;;;;;11.25;10.15;;;;;;;;;;5018863;28;20190;-70
2021/07/12 09:16:56;;;;;;;12.35;9.27;;;;;;;;;;5029421;28;20201;-71
2021/07/12 09:19:21;;;;;;;8.60;7.53;;;;;;;;;;5023428;28;20190;-70
2021/07/12 09:21:53;;;;;;;9.90;7.88;;;;;;;;;;5019806;28;20240;-70
2021/07/12 09:24:28;;;;;;;7.93;7.13;;;;;;;;;;5023367;28;20536;-70
2021/07/12 09:27:00;;;;;;;8.15;6.78;;;;;;;;;;5016632;28;20186;-69
2021/07/12 09:29:31;;;;;;;8.75;7.70;;;;;;;;;;5025758;28;20189;-70
2021/07/12 09:31:59;;;;;;;9.23;8.32;;;;;;;;;;5017655;28;20316;-70
2021/07/12 09:34:25;;;;;;;9.90;8.90;;;;;;;;;;5026756;28;20198;-69
2021/07/12 09:36:52;;;;;;;13.10;11.68;;;;;;;;;;5018168;28;20198;-69
2021/07/12 09:39:23;;;;;;;13.43;11.13;;;;;;;;;;5027497;28;20186;-69
2021/07/12 09:41:51;;;;;;;12.35;11.15;;;;;;;;;;5019018;28;20186;-69
2021/07/12 09:44:18;;;;;;;13.80;12.38;;;;;;;;;;5025005;28;20197;-70
2021/07/12 09:46:44;;;;;;;16.55;14.85;;;;;;;;;;5019234;28;20269;-70
2021/07/12 09:49:11;;;;;;;16.10;14.35;;;;;;;;;;5023493;28;20776;-68
2021/07/12 09:51:38;;;;;;;14.95;12.82;;;;;;;;;;5015403;28;20197;-69
2021/07/12 09:54:18;;;;;;;13.98;12.52;;;;;;;;;;5019472;28;20218;-69
2021/07/12 09:56:43;;;;;;;12.70;10.75;;;;;;;;;;5016024;28;20226;-70
2021/07/12 09:59:12;;;;;;;12.88;11.48;;;;;;;;;;5020896;28;20188;-70
2021/07/12 10:01:38;;;;;;;13.18;11.77;;;;;;;;;;5020179;28;20190;-69
2021/07/12 10:04:03;;;;;;;13.90;12.20;;;;;;;;;;5021622;28;20652;-69
2021/07/12 10:06:29;;;;;;;13.30;11.85;;;;;;;;;;5021967;28;20696;-69
2021/07/12 10:08:54;;;;;;;14.80;12.93;;;;;;;;;;5013365;28;20183;-69
2021/07/12 10:11:20;;;;;;;14.00;12.48;;;;;;;;;;5025507;28;20206;-69
2021/07/12 10:13:45;;;;;;;13.02;10.75;;;;;;;;;;5015985;28;20360;-69
2021/07/12 10:16:11;;;;;;;10.57;9.48;;;;;;;;;;5023629;28;20190;-68
2021/07/12 10:18:37;;;;;;;12.00;9.32;;;;;;;;;;5009390;28;20190;-69
2021/07/12 10:21:02;;;;;;;13.25;11.95;;;;;;;;;;5021973;28;20491;-69
2021/07/12 10:23:28;;;;;;;15.73;13.02;;;;;;;;;;5016122;28;20218;-67
2021/07/12 10:25:55;;;;;;;15.73;14.02;;;;;;;;;;5024173;28;20190;-71
2021/07/12 10:28:40;;;;;;;15.25;13.65;;;;;;;;;;5015442;28;20195;-69
2021/07/12 10:31:21;;;;;;;19.92;15.20;;;;;;;;;;5017414;28;20197;-68
2021/07/12 10:33:46;;;;;;;16.38;14.68;;;;;;;;;;5013564;28;20229;-69
2021/07/12 10:36:11;;;;;;;15.90;13.23;;;;;;;;;;5023916;28;20908;-69
2021/07/12 10:38:43;;;;;;;15.38;13.65;;;;;;;;;;5008152;28;20189;-68
2021/07/12 10:41:18;;;;;;;14.18;12.20;;;;;;;;;;5020356;28;20187;-68
2021/07/12 10:43:46;;;;;;;13.00;10.90;;;;;;;;;;5024317;28;20189;-69
2021/07/12 10:46:24;;;;;;;13.27;11.80;;;;;;;;;;5016304;28;20598;-69
2021/07/12 10:48:50;;;;;;;14.45;12.65;;;;;;;;;;5023829;28;20264;-68
2021/07/12 10:51:20;;;;;;;16.83;14.07;;;;;;;;;;5011051;28;20193;-68
2021/07/12 10:54:04;;;;;;;14.10;12.80;;;;;;;;;;5023626;28;20186;-72
2021/07/12 10:56:41;;;;;;;14.60;12.70;;;;;;;;;;5011444;28;20222;-70
2021/07/12 10:59:07;;;;;;;15.63;14.00;;;;;;;;;;5023810;28;20645;-69
2021/07/12 11:01:38;;;;;;;15.95;13.90;;;;;;;;;;5010157;28;20191;-69
2021/07/12 11:04:34;;;;;;;15.20;13.60;;;;;;;;;;5023597;28;20818;-69
2021/07/12 11:07:00;;;;;;;16.95;15.15;;;;;;;;;;5013006;28;20200;-69
2021/07/12 11:09:49;;;;;;;16.63;14.20;;;;;;;;;;5018113;28;20182;-69
2021/07/12 11:12:37;;;;;;;17.27;15.48;;;;;;;;;;5010558;28;20194;-68
2021/07/12 11:15:10;;;;;;;17.17;14.32;;;;;;;;;;5019858;28;20209;-69
2021/07/12 11:17:57;;;;;;;16.20;14.50;;;;;;;;;;5018574;28;20218;-69
2021/07/12 11:20:53;;;;;;;15.38;13.93;;;;;;;;;;4980806;28;20264;-70
2021/07/12 11:23:55;;;;;;;16.55;14.80;;;;;;;;;;5021535;28;20269;-69
2021/07/12 11:26:20;;;;;;;17.70;15.95;;;;;;;;;;5011593;28;20201;-68
2021/07/12 11:28:48;;;;;;;16.70;15.10;;;;;;;;;;5024223;28;20247;-68
2021/07/12 11:31:42;;;;;;;16.40;13.55;;;;;;;;;;5015460;28;20665;-69
2021/07/12 11:34:47;;;;;;;14.88;13.38;;;;;;;;;;5021762;28;20178;-68
2021/07/12 11:37:21;;;;;;;17.55;15.65;;;;;;;;;;4972591;28;20593;-69
2021/07/12 11:39:53;;;;;;;20.90;17.70;;;;;;;;;;5020978;28;20186;-68
2021/07/12 11:42:25;;;;;;;17.15;14.57;;;;;;;;;;5014844;28;21005;-69
2021/07/12 11:44:53;;;;;;;16.73;15.07;;;;;;;;;;5023826;28;20716;-69
2021/07/12 11:47:34;;;;;;;16.00;13.85;;;;;;;;;;5014214;28;20182;-68
2021/07/12 11:50:15;;;;;;;15.63;14.02;;;;;;;;;;5027232;28;20598;-68
2021/07/12 11:52:46;;;;;;;14.07;12.60;;;;;;;;;;5017246;28;20194;-68
2021/07/12 11:55:17;;;;;;;15.40;13.85;;;;;;;;;;5025216;28;20175;-68
2021/07/12 11:57:46;;;;;;;15.02;13.30;;;;;;;;;;5017556;28;20213;-71
2021/07/12 12:00:15;;;;;;;14.43;12.90;;;;;;;;;;5025761;28;20705;-70
2021/07/12 12:02:41;;;;;;;15.35;13.85;;;;;;;;;;5020457;28;20665;-68
2021/07/12 12:05:11;;;;;;;14.98;13.48;;;;;;;;;;5005750;28;20277;-68
2021/07/12 12:07:57;;;;;;;15.02;13.52;;;;;;;;;;5017801;28;20187;-69
2021/07/12 12:10:28;;;;;;;16.90;14.05;;;;;;;;;;5020402;28;20586;-69
2021/07/12 12:12:58;;;;;;;15.15;13.65;;;;;;;;;;5025760;28;20214;-69
2021/07/12 12:15:32;;;;;;;14.13;12.63;;;;;;;;;;5015145;28;20931;-69
2021/07/12 12:18:09;;;;;;;15.43;13.50;;;;;;;;;;5024945;28;20268;-69
2021/07/12 12:20:45;;;;;;;15.18;13.57;;;;;;;;;;5018385;28;20263;-70
2021/07/12 12:23:22;;;;;;;15.65;13.90;;;;;;;;;;5023105;28;20194;-70
2021/07/12 12:26:06;;;;;;;18.00;14.63;;;;;;;;;;5010678;28;20234;-69
2021/07/12 12:28:32;;;;;;;15.85;14.32;;;;;;;;;;5024948;28;20197;-69
2021/07/12 12:31:07;;;;;;;15.20;13.70;;;;;;;;;;5011846;28;20771;-69
2021/07/12 12:33:39;;;;;;;16.50;14.80;;;;;;;;;;5022254;28;20189;-69
2021/07/12 12:36:16;;;;;;;14.80;13.40;;;;;;;;;;5010193;28;20614;-69
2021/07/12 12:38:54;;;;;;;14.63;13.10;;;;;;;;;;5022966;28;20186;-69
2021/07/12 12:41:22;;;;;;;14.35;12.85;;;;;;;;;;5016605;28;20738;-69
2021/07/12 12:44:08;;;;;;;14.45;13.05;;;;;;;;;;5021879;28;20234;-69
2021/07/12 12:46:38;;;;;;;12.93;11.73;;;;;;;;;;5011817;28;20229;-69
2021/07/12 12:49:16;;;;;;;14.63;11.90;;;;;;;;;;5027570;28;20720;-69
2021/07/12 12:51:55;;;;;;;15.15;13.38;;;;;;;;;;5017098;28;20217;-69
2021/07/12 12:54:22;;;;;;;13.18;11.82;;;;;;;;;;5027378;28;20178;-69
2021/07/12 12:56:49;;;;;;;13.88;12.45;;;;;;;;;;5015568;28;20259;-70
2021/07/12 12:59:16;;;;;;;12.35;11.18;;;;;;;;;;5019765;28;20198;-69
2021/07/12 13:01:43;;;;;;;11.95;10.73;;;;;;;;;;5016338;28;20182;-69
2021/07/12 13:04:17;;;;;;;12.32;10.90;;;;;;;;;;5009284;28;20186;-69
2021/07/12 13:06:49;;;;;;;12.98;9.93;;;;;;;;;;5014754;28;20178;-69
2021/07/12 13:09:28;;;;;;;9.18;8.27;;;;;;;;;;5017962;28;20195;-70
2021/07/12 13:12:15;;;;;;;9.90;9.00;;;;;;;;;;5015470;28;20230;-69
2021/07/12 13:14:47;;;;;;;11.52;10.52;;;;;;;;;;5025921;28;20221;-69
2021/07/12 13:17:18;;;;;;;11.68;10.35;;;;;;;;;;5016033;28;20232;-69
2021/07/12 13:19:55;;;;;;;12.18;9.70;;;;;;;;;;5025548;28;20240;-70
2021/07/12 13:22:23;;;;;;;12.55;11.32;;;;;;;;;;5016828;28;20178;-69
2021/07/12 13:24:50;;;;;;;11.50;10.40;;;;;;;;;;5024174;28;20186;-69
2021/07/12 13:27:22;;;;;;;13.25;11.70;;;;;;;;;;5016709;28;20212;-69
2021/07/12 13:29:48;;;;;;;14.27;12.88;;;;;;;;;;5022135;28;20292;-68
2021/07/12 13:32:13;;;;;;;12.60;11.43;;;;;;;;;;5026398;28;20244;-69
2021/07/12 13:34:57;;;;;;;13.15;11.85;;;;;;;;;;5009205;28;20187;-69
2021/07/12 13:37:22;;;;;;;13.32;11.95;;;;;;;;;;5026680;28;20197;-69
2021/07/12 13:39:49;;;;;;;14.80;12.55;;;;;;;;;;5017095;28;20914;-69
2021/07/12 13:42:14;;;;;;;11.88;10.77;;;;;;;;;;5024574;28;20273;-69
2021/07/12 13:44:39;;;;;;;12.63;11.43;;;;;;;;;;5011635;28;20563;-69
2021/07/12 13:47:05;;;;;;;12.75;11.55;;;;;;;;;;5024773;28;20182;-69
2021/07/12 13:49:30;;;;;;;13.13;11.82;;;;;;;;;;5014304;28;20717;-69
2021/07/12 13:51:55;;;;;;;14.18;12.80;;;;;;;;;;5024532;28;20178;-69
2021/07/12 13:54:20;;;;;;;13.25;11.98;;;;;;;;;;5015111;28;20261;-69
2021/07/12 13:56:46;;;;;;;13.15;11.75;;;;;;;;;;5024947;28;20288;-69
2021/07/12 13:59:11;;;;;;;13.52;12.23;;;;;;;;;;5011879;28;20275;-69
2021/07/12 14:01:37;;;;;;;13.73;12.35;;;;;;;;;;5024163;28;20671;-69
2021/07/12 14:04:02;;;;;;;13.20;11.80;;;;;;;;;;5018669;28;20190;-69
2021/07/12 14:06:27;;;;;;;12.77;11.48;;;;;;;;;;5013986;28;20201;-69
2021/07/12 14:08:54;;;;;;;12.27;10.52;;;;;;;;;;5020306;28;20225;-69
2021/07/12 14:11:19;;;;;;;11.07;10.07;;;;;;;;;;5013736;28;20547;-69
2021/07/12 14:13:46;;;;;;;12.48;11.38;;;;;;;;;;5018903;28;20191;-69
2021/07/12 14:16:12;;;;;;;12.50;11.30;;;;;;;;;;5014643;28;20533;-69
2021/07/12 14:18:37;;;;;;;14.75;12.23;;;;;;;;;;5021456;28;20193;-69
2021/07/12 14:21:02;;;;;;;16.55;12.38;;;;;;;;;;5010699;28;20191;-69
2021/07/12 14:23:27;;;;;;;14.05;12.35;;;;;;;;;;5019557;28;20182;-69
2021/07/12 14:25:53;;;;;;;14.25;12.82;;;;;;;;;;5009938;28;20186;-68
2021/07/12 14:28:18;;;;;;;14.73;13.32;;;;;;;;;;5020721;28;20636;-68
2021/07/12 14:30:43;;;;;;;12.82;11.63;;;;;;;;;;5010785;28;20766;-68